Map

Track Data

SID SEASON NUMBER BASIN SUBBASIN NAME ISO_TIME NATURE LAT LON WMO_WIND WMO_PRES WMO_AGENCY TRACK_TYPE DIST2LAND LANDFALL IFLAG USA_AGENCY USA_ATCF_ID USA_LAT USA_LON USA_RECORD USA_STATUS USA_WIND USA_PRES USA_SSHS USA_R34_NE USA_R34_SE USA_R34_SW USA_R34_NW USA_R50_NE USA_R50_SE USA_R50_SW USA_R50_NW USA_R64_NE USA_R64_SE USA_R64_SW USA_R64_NW USA_POCI USA_ROCI USA_RMW USA_EYE TOKYO_LAT TOKYO_LON TOKYO_GRADE TOKYO_WIND TOKYO_PRES TOKYO_R50_DIR TOKYO_R50_LONG TOKYO_R50_SHORT TOKYO_R30_DIR TOKYO_R30_LONG TOKYO_R30_SHORT TOKYO_LAND CMA_LAT CMA_LON CMA_CAT CMA_WIND CMA_PRES HKO_LAT HKO_LON HKO_CAT HKO_WIND HKO_PRES NEWDELHI_LAT NEWDELHI_LON NEWDELHI_GRADE NEWDELHI_WIND NEWDELHI_PRES NEWDELHI_CI NEWDELHI_DP NEWDELHI_POCI REUNION_LAT REUNION_LON REUNION_TYPE REUNION_WIND REUNION_PRES REUNION_TNUM REUNION_CI REUNION_RMW REUNION_R34_NE REUNION_R34_SE REUNION_R34_SW REUNION_R34_NW REUNION_R50_NE REUNION_R50_SE REUNION_R50_SW REUNION_R50_NW REUNION_R64_NE REUNION_R64_SE REUNION_R64_SW REUNION_R64_NW BOM_LAT BOM_LON BOM_TYPE BOM_WIND BOM_PRES BOM_TNUM BOM_CI BOM_RMW BOM_R34_NE BOM_R34_SE BOM_R34_SW BOM_R34_NW BOM_R50_NE BOM_R50_SE BOM_R50_SW BOM_R50_NW BOM_R64_NE BOM_R64_SE BOM_R64_SW BOM_R64_NW BOM_ROCI BOM_POCI BOM_EYE BOM_POS_METHOD BOM_PRES_METHOD NADI_LAT NADI_LON NADI_CAT NADI_WIND NADI_PRES WELLINGTON_LAT WELLINGTON_LON WELLINGTON_WIND WELLINGTON_PRES DS824_LAT DS824_LON DS824_STAGE DS824_WIND DS824_PRES TD9636_LAT TD9636_LON TD9636_STAGE TD9636_WIND TD9636_PRES TD9635_LAT TD9635_LON TD9635_WIND TD9635_PRES TD9635_ROCI NEUMANN_LAT NEUMANN_LON NEUMANN_CLASS NEUMANN_WIND NEUMANN_PRES MLC_LAT MLC_LON MLC_CLASS MLC_WIND MLC_PRES USA_GUST BOM_GUST BOM_GUST_PER REUNION_GUST REUNION_GUST_PER USA_SEAHGT USA_SEARAD_NE USA_SEARAD_SE USA_SEARAD_SW USA_SEARAD_NW STORM_SPEED STORM_DIR
1945275N16279 1945 69 NA CS NOT_NAMED 1945-10-02 06:00:00 TS 15.5000 -81.0000 40 hurdat_atl main 232 211 O_____________ hurdat_atl AL101945 15.5000 -81.0000 TS 40 0 5 280
1945275N16279 1945 69 NA CS NOT_NAMED 1945-10-02 09:00:00 TS 15.5426 -81.2500 main 211 184 P_____________ AL101945 15.5426 -81.2500 TS 45 0 5 282
1945275N16279 1945 69 NA CS NOT_NAMED 1945-10-02 12:00:00 TS 15.6000 -81.5000 50 hurdat_atl main 184 164 O_____________ hurdat_atl AL101945 15.6000 -81.5000 TS 50 0 5 286
1945275N16279 1945 69 NA CS NOT_NAMED 1945-10-02 15:00:00 TS 15.6850 -81.7500 main 159 148 P_____________ AL101945 15.6850 -81.7500 TS 55 0 5 293
1945275N16279 1945 69 NA CS NOT_NAMED 1945-10-02 18:00:00 TS 15.8000 -82.0000 60 hurdat_atl main 148 139 O_____________ hurdat_atl AL101945 15.8000 -82.0000 TS 60 0 5 299
1945275N16279 1945 69 NA CS NOT_NAMED 1945-10-02 21:00:00 TS 15.9424 -82.2425 main 139 131 P_____________ AL101945 15.9424 -82.2425 TS 62 0 6 302
1945275N16279 1945 69 NA CS NOT_NAMED 1945-10-03 00:00:00 TS 16.1000 -82.5000 65 hurdat_atl main 131 119 O_____________ hurdat_atl AL101945 16.1000 -82.5000 HU 65 1 6 301
1945275N16279 1945 69 NA CS NOT_NAMED 1945-10-03 03:00:00 TS 16.2575 -82.7850 main 129 119 P_____________ AL101945 16.2575 -82.7850 HU 67 1 7 298
1945275N16279 1945 69 NA CS NOT_NAMED 1945-10-03 06:00:00 TS 16.4000 -83.1000 70 hurdat_atl main 127 119 O_____________ hurdat_atl AL101945 16.4000 -83.1000 HU 70 1 7 293
1945275N16279 1945 69 NA CS NOT_NAMED 1945-10-03 09:00:00 TS 16.5073 -83.4126 main 119 104 P_____________ AL101945 16.5073 -83.4126 HU 70 1 7 287
1945275N16279 1945 69 NA CS NOT_NAMED 1945-10-03 12:00:00 TS 16.6000 -83.8000 70 987 hurdat_atl main 104 95 O_____________ hurdat_atl AL101945 16.6000 -83.8000 HU 70 987 1 9 284
1945275N16279 1945 69 NA CS NOT_NAMED 1945-10-03 15:00:00 TS 16.7300 -84.3123 main 99 95 P_____________ AL101945 16.7300 -84.3123 HU 72 984 1 11 281
1945275N16279 1945 69 NA CS NOT_NAMED 1945-10-03 18:00:00 TS 16.8000 -84.9000 75 982 hurdat_atl main 100 89 O_____________ hurdat_atl AL101945 16.8000 -84.9000 HU 75 982 1 11 270
1945275N16279 1945 69 NA CS NOT_NAMED 1945-10-03 21:00:00 TS 16.7298 -85.4852 main 89 78 P_____________ AL101945 16.7298 -85.4852 HU 77 1 12 260
1945275N16279 1945 69 NA CS NOT_NAMED 1945-10-04 00:00:00 TS 16.6000 -86.1000 80 hurdat_atl main 81 78 O_____________ hurdat_atl AL101945 16.6000 -86.1000 HU 80 1 12 259
1945275N16279 1945 69 NA CS NOT_NAMED 1945-10-04 03:00:00 TS 16.4999 -86.7424 main 81 67 P_____________ AL101945 16.4999 -86.7424 HU 80 1 13 261
1945275N16279 1945 69 NA CS NOT_NAMED 1945-10-04 06:00:00 TS 16.4000 -87.4000 80 hurdat_atl main 67 48 O_____________ hurdat_atl AL101945 16.4000 -87.4000 HU 80 1 13 261
1945275N16279 1945 69 NA CS NOT_NAMED 1945-10-04 09:00:00 TS 16.2998 -88.0499 main 48 0 P_____________ AL101945 16.2998 -88.0499 HU 80 1 13 261
1945275N16279 1945 69 NA CS NOT_NAMED 1945-10-04 12:00:00 TS 16.2000 -88.7000 80 hurdat_atl main 0 0 O_____________ hurdat_atl AL101945 16.2000 -88.7000 HU 80 1 13 261
1945275N16279 1945 69 NA NA NOT_NAMED 1945-10-04 15:00:00 TS 16.0998 -89.3499 main 0 0 P_____________ AL101945 16.0998 -89.3499 HU 67 1 13 261
1945275N16279 1945 69 NA NA NOT_NAMED 1945-10-04 18:00:00 TS 16.0000 -90.0000 55 hurdat_atl main 0 0 O_____________ hurdat_atl AL101945 16.0000 -90.0000 TS 55 0 13 261
1945275N16279 1945 69 NA NA NOT_NAMED 1945-10-04 21:00:00 TS 15.8923 -90.6500 main 0 0 P_____________ AL101945 15.8923 -90.6500 TS 45 0 13 261
1945275N16279 1945 69 NA NA NOT_NAMED 1945-10-05 00:00:00 TS 15.8000 -91.3000 35 hurdat_atl main 0 0 O_____________ hurdat_atl AL101945 15.8000 -91.3000 TS 35 0 13 263
1945275N16279 1945 69 NA NA NOT_NAMED 1945-10-05 03:00:00 TS 15.7497 -91.9423 main 0 0 P_____________ AL101945 15.7497 -91.9423 TS 32 -1 13 265
1945275N16279 1945 69 NA NA NOT_NAMED 1945-10-05 06:00:00 TS 15.7000 -92.6000 30 hurdat_atl main 0 0 O_____________ hurdat_atl AL101945 15.7000 -92.6000 TD 30 -1 13 263
1945275N16279 1945 69 EP MM NOT_NAMED 1945-10-05 09:00:00 TS 15.5921 -93.2702 main 0 0 P_____________ AL101945 15.5921 -93.2702 TD 30 -1 14 262
1945275N16279 1945 69 EP MM NOT_NAMED 1945-10-05 12:00:00 TS 15.5000 -94.0000 30 hurdat_atl main 55 55 O_____________ hurdat_atl AL101945 15.5000 -94.0000 TD 30 -1 15 265
1945275N16279 1945 69 EP MM NOT_NAMED 1945-10-05 15:00:00 TS 15.4621 -94.8052 main 78 46 P_____________ AL101945 15.4621 -94.8052 TD 30 -1 16 270
1945275N16279 1945 69 EP MM NOT_NAMED 1945-10-05 18:00:00 TS 15.5000 -95.7000 30 hurdat_atl main 44 0 O_____________ hurdat_atl AL101945 15.5000 -95.7000 TD 30 -1 18 275
1945275N16279 1945 69 EP MM NOT_NAMED 1945-10-05 21:00:00 TS 15.6123 -96.6776 main 10 10 P_____________ AL101945 15.6123 -96.6776 TD 30 -1 20 279
1945275N16279 1945 69 EP MM NOT_NAMED 1945-10-06 00:00:00 TS 15.8000 -97.7000 30 hurdat_atl main 22 22 O_____________ hurdat_atl AL101945 15.8000 -97.7000 TD 30 -1 20 282
1945275N16279 1945 69 EP MM NOT_NAMED 1945-10-06 03:00:00 TS 16.0197 -98.7152 main 35 35 P_____________ AL101945 16.0197 -98.7152 TD 30 -1 20 285
1945275N16279 1945 69 EP MM NOT_NAMED 1945-10-06 06:00:00 TS 16.3000 -99.7000 30 hurdat_atl main 44 39 O_____________ hurdat_atl AL101945 16.3000 -99.7000 TD 30 -1 20 288
1945275N16279 1945 69 EP MM NOT_NAMED 1945-10-06 09:00:00 TS 16.6124 -100.660 main 59 46 P_____________ AL101945 16.6124 -100.660 TD 30 -1 19 292
1945275N16279 1945 69 EP MM NOT_NAMED 1945-10-06 12:00:00 TS 17.0000 -101.500 30 hurdat_atl main 54 49 O_____________ hurdat_atl AL101945 17.0000 -101.500 TD 30 -1 17 300
1945275N16279 1945 69 EP MM NOT_NAMED 1945-10-06 15:00:00 TS 17.4546 -102.175 main 45 10 P_____________ AL101945 17.4546 -102.175 TD 30 -1 15 311
1945275N16279 1945 69 EP MM NOT_NAMED 1945-10-06 18:00:00 TS 18.0000 -102.700 30 hurdat_atl main 10 0 O_____________ hurdat_atl AL101945 18.0000 -102.700 TD 30 -1 15 321
1945275N16279 1945 69 EP MM NOT_NAMED 1945-10-06 21:00:00 TS 18.5973 -103.145 main 0 0 P_____________ AL101945 18.5973 -103.145 TD 30 -1 15 330
1945275N16279 1945 69 EP MM NOT_NAMED 1945-10-07 00:00:00 TS 19.3000 -103.500 30 hurdat_atl main 0 0 O_____________ hurdat_atl AL101945 19.3000 -103.500 TD 30 -1 16 337
1945275N16279 1945 69 EP MM NOT_NAMED 1945-10-07 03:00:00 TS 20.0975 -103.830 main 0 0 P_____________ AL101945 20.0975 -103.830 TD 30 -1 18 342
1945275N16279 1945 69 EP MM NOT_NAMED 1945-10-07 06:00:00 TS 21.0000 -104.100 30 hurdat_atl main 0 0 O_____________ hurdat_atl AL101945 21.0000 -104.100 TD 30 -1 19 346
1945275N16279 1945 69 EP MM NOT_NAMED 1945-10-07 09:00:00 TS 21.9800 -104.315 main 0 0 P_____________ AL101945 21.9800 -104.315 TD 27 -1 20 350
1945275N16279 1945 69 EP MM NOT_NAMED 1945-10-07 12:00:00 TS 23.0000 -104.500 25 hurdat_atl main 0 O_____________ hurdat_atl AL101945 23.0000 -104.500 TD 25 -1 21 350

About IBTrACS Database

This database is a web-friendly format of International Best Track Archive for Climate Stewardship (IBTrACS), a global best track data archive curated by NOAA dating back to 1842.

Updated: 2021-12-06